sensor_id;sensor_type;location;lat;lon;timestamp;temperature;humidity
39909;DHT22;25576;48.328;15.694;2022-08-03T00:02:38;18.60;99.90
39909;DHT22;25576;48.328;15.694;2022-08-03T00:08:10;18.80;99.90
39909;DHT22;25576;48.328;15.694;2022-08-03T00:13:40;18.80;99.90
39909;DHT22;25576;48.328;15.694;2022-08-03T00:19:11;18.90;99.90
39909;DHT22;25576;48.328;15.694;2022-08-03T00:24:43;19.00;99.90
39909;DHT22;25576;48.328;15.694;2022-08-03T00:30:13;18.90;99.90
39909;DHT22;25576;48.328;15.694;2022-08-03T00:35:44;18.70;99.90
39909;DHT22;25576;48.328;15.694;2022-08-03T00:41:16;18.60;99.90
39909;DHT22;25576;48.328;15.694;2022-08-03T00:46:46;18.50;99.90
39909;DHT22;25576;48.328;15.694;2022-08-03T00:52:16;18.40;99.90
39909;DHT22;25576;48.328;15.694;2022-08-03T00:57:48;18.40;99.90
39909;DHT22;25576;48.328;15.694;2022-08-03T01:03:19;18.30;99.90
39909;DHT22;25576;48.328;15.694;2022-08-03T01:08:51;18.20;99.90
39909;DHT22;25576;48.328;15.694;2022-08-03T01:14:26;18.00;99.90
39909;DHT22;25576;48.328;15.694;2022-08-03T01:19:59;17.90;1.00
39909;DHT22;25576;48.328;15.694;2022-08-03T01:25:33;17.90;1.00
39909;DHT22;25576;48.328;15.694;2022-08-03T01:31:06;17.90;1.00
39909;DHT22;25576;48.328;15.694;2022-08-03T01:36:38;17.90;1.00
39909;DHT22;25576;48.328;15.694;2022-08-03T01:42:09;17.90;1.00
39909;DHT22;25576;48.328;15.694;2022-08-03T01:47:42;18.00;1.00
39909;DHT22;25576;48.328;15.694;2022-08-03T01:53:13;18.10;1.00
39909;DHT22;25576;48.328;15.694;2022-08-03T01:58:44;18.00;1.00
39909;DHT22;25576;48.328;15.694;2022-08-03T02:04:17;18.00;99.90
39909;DHT22;25576;48.328;15.694;2022-08-03T02:09:48;17.90;99.90
39909;DHT22;25576;48.328;15.694;2022-08-03T02:15:20;17.90;99.90
39909;DHT22;25576;48.328;15.694;2022-08-03T02:20:52;17.80;99.90
39909;DHT22;25576;48.328;15.694;2022-08-03T02:26:23;17.70;1.00
39909;DHT22;25576;48.328;15.694;2022-08-03T02:31:56;17.90;1.00
39909;DHT22;25576;48.328;15.694;2022-08-03T02:37:30;17.80;1.00
39909;DHT22;25576;48.328;15.694;2022-08-03T02:43:02;17.80;99.90
39909;DHT22;25576;48.328;15.694;2022-08-03T02:48:34;17.90;99.90
39909;DHT22;25576;48.328;15.694;2022-08-03T02:54:07;17.80;99.90
39909;DHT22;25576;48.328;15.694;2022-08-03T02:59:38;17.80;99.90
39909;DHT22;25576;48.328;15.694;2022-08-03T03:05:09;17.70;99.90
39909;DHT22;25576;48.328;15.694;2022-08-03T03:10:42;17.60;99.90
39909;DHT22;25576;48.328;15.694;2022-08-03T03:16:12;17.60;99.90
39909;DHT22;25576;48.328;15.694;2022-08-03T03:21:43;17.40;99.90
39909;DHT22;25576;48.328;15.694;2022-08-03T03:27:16;17.30;99.90
39909;DHT22;25576;48.328;15.694;2022-08-03T03:32:47;17.20;1.00
39909;DHT22;25576;48.328;15.694;2022-08-03T03:38:18;17.20;1.00
39909;DHT22;25576;48.328;15.694;2022-08-03T03:43:51;17.30;1.00
39909;DHT22;25576;48.328;15.694;2022-08-03T03:49:21;17.50;1.00
39909;DHT22;25576;48.328;15.694;2022-08-03T03:54:52;17.50;1.00
39909;DHT22;25576;48.328;15.694;2022-08-03T04:00:23;17.40;1.00
39909;DHT22;25576;48.328;15.694;2022-08-03T04:05:54;17.40;1.00
39909;DHT22;25576;48.328;15.694;2022-08-03T04:11:42;17.20;1.00
39909;DHT22;25576;48.328;15.694;2022-08-03T04:17:16;17.10;1.00
39909;DHT22;25576;48.328;15.694;2022-08-03T04:22:48;17.20;1.00
39909;DHT22;25576;48.328;15.694;2022-08-03T04:28:19;17.20;1.00
39909;DHT22;25576;48.328;15.694;2022-08-03T04:33:52;17.30;1.00
39909;DHT22;25576;48.328;15.694;2022-08-03T04:39:23;17.50;1.00
39909;DHT22;25576;48.328;15.694;2022-08-03T04:44:54;17.70;1.00
39909;DHT22;25576;48.328;15.694;2022-08-03T04:50:26;17.70;1.00
39909;DHT22;25576;48.328;15.694;2022-08-03T04:56:02;17.90;1.00
39909;DHT22;25576;48.328;15.694;2022-08-03T05:01:33;18.00;1.00
39909;DHT22;25576;48.328;15.694;2022-08-03T05:07:05;18.00;1.00
39909;DHT22;25576;48.328;15.694;2022-08-03T05:12:35;18.10;1.00
39909;DHT22;25576;48.328;15.694;2022-08-03T05:18:05;18.10;1.00
39909;DHT22;25576;48.328;15.694;2022-08-03T05:23:37;18.20;1.00
39909;DHT22;25576;48.328;15.694;2022-08-03T05:29:19;18.30;1.00
39909;DHT22;25576;48.328;15.694;2022-08-03T05:34:50;18.40;1.00
39909;DHT22;25576;48.328;15.694;2022-08-03T05:40:22;18.60;1.00
39909;DHT22;25576;48.328;15.694;2022-08-03T05:45:53;18.70;1.00
39909;DHT22;25576;48.328;15.694;2022-08-03T05:51:23;18.80;1.00
39909;DHT22;25576;48.328;15.694;2022-08-03T05:56:55;18.90;1.00
39909;DHT22;25576;48.328;15.694;2022-08-03T06:02:26;19.10;1.00
39909;DHT22;25576;48.328;15.694;2022-08-03T06:07:56;19.40;1.00
39909;DHT22;25576;48.328;15.694;2022-08-03T06:13:29;19.50;99.90
39909;DHT22;25576;48.328;15.694;2022-08-03T06:19:00;19.70;99.90
39909;DHT22;25576;48.328;15.694;2022-08-03T06:24:30;19.80;99.90
39909;DHT22;25576;48.328;15.694;2022-08-03T06:30:02;20.20;99.90
39909;DHT22;25576;48.328;15.694;2022-08-03T06:35:33;20.40;99.90
39909;DHT22;25576;48.328;15.694;2022-08-03T06:41:04;20.50;99.90
39909;DHT22;25576;48.328;15.694;2022-08-03T06:46:37;20.70;99.90
39909;DHT22;25576;48.328;15.694;2022-08-03T06:52:08;21.10;99.90
39909;DHT22;25576;48.328;15.694;2022-08-03T06:57:39;21.20;99.90
39909;DHT22;25576;48.328;15.694;2022-08-03T07:03:16;21.40;99.90
39909;DHT22;25576;48.328;15.694;2022-08-03T07:08:46;21.50;44.20
39909;DHT22;25576;48.328;15.694;2022-08-03T07:14:17;21.80;18.30
39909;DHT22;25576;48.328;15.694;2022-08-03T07:19:51;22.00;1.00
39909;DHT22;25576;48.328;15.694;2022-08-03T07:25:22;22.30;1.00
39909;DHT22;25576;48.328;15.694;2022-08-03T07:30:53;22.50;1.00
39909;DHT22;25576;48.328;15.694;2022-08-03T07:36:26;22.80;1.00
39909;DHT22;25576;48.328;15.694;2022-08-03T07:41:57;23.10;1.00
39909;DHT22;25576;48.328;15.694;2022-08-03T07:47:29;23.30;99.90
39909;DHT22;25576;48.328;15.694;2022-08-03T07:53:03;23.50;99.90
39909;DHT22;25576;48.328;15.694;2022-08-03T07:58:34;23.70;99.90
39909;DHT22;25576;48.328;15.694;2022-08-03T08:04:08;23.90;99.90
39909;DHT22;25576;48.328;15.694;2022-08-03T08:09:42;23.90;99.90
39909;DHT22;25576;48.328;15.694;2022-08-03T08:15:16;24.20;99.90
39909;DHT22;25576;48.328;15.694;2022-08-03T08:20:52;24.30;99.90
39909;DHT22;25576;48.328;15.694;2022-08-03T08:26:25;24.30;99.90
39909;DHT22;25576;48.328;15.694;2022-08-03T08:32:01;24.30;99.90
39909;DHT22;25576;48.328;15.694;2022-08-03T08:37:35;24.30;99.90
39909;DHT22;25576;48.328;15.694;2022-08-03T08:49:09;25.10;99.90
39909;DHT22;25576;48.328;15.694;2022-08-03T08:54:47;25.00;99.90
39909;DHT22;25576;48.328;15.694;2022-08-03T09:00:26;25.20;99.90
39909;DHT22;25576;48.328;15.694;2022-08-03T09:06:10;25.40;99.90
39909;DHT22;25576;48.328;15.694;2022-08-03T09:11:55;25.70;99.90
39909;DHT22;25576;48.328;15.694;2022-08-03T09:17:40;25.90;99.90
39909;DHT22;25576;48.328;15.694;2022-08-03T09:26:36;26.30;99.90
39909;DHT22;25576;48.328;15.694;2022-08-03T09:32:23;26.20;99.90
39909;DHT22;25576;48.328;15.694;2022-08-03T09:38:23;26.40;99.90
39909;DHT22;25576;48.328;15.694;2022-08-03T09:56:20;27.20;99.90
39909;DHT22;25576;48.328;15.694;2022-08-03T10:02:29;27.30;99.90
39909;DHT22;25576;48.328;15.694;2022-08-03T10:27:14;28.10;99.90
39909;DHT22;25576;48.328;15.694;2022-08-03T10:32:57;28.30;99.90
39909;DHT22;25576;48.328;15.694;2022-08-03T10:38:31;28.50;99.90
39909;DHT22;25576;48.328;15.694;2022-08-03T10:44:06;28.70;99.90
39909;DHT22;25576;48.328;15.694;2022-08-03T10:49:37;28.90;99.90
39909;DHT22;25576;48.328;15.694;2022-08-03T11:01:11;29.20;99.90
39909;DHT22;25576;48.328;15.694;2022-08-03T11:06:43;29.30;99.90
39909;DHT22;25576;48.328;15.694;2022-08-03T11:12:23;29.50;99.90
39909;DHT22;25576;48.328;15.694;2022-08-03T11:18:06;29.50;99.90
39909;DHT22;25576;48.328;15.694;2022-08-03T11:23:41;29.70;99.90
39909;DHT22;25576;48.328;15.694;2022-08-03T11:29:27;29.90;99.90
39909;DHT22;25576;48.328;15.694;2022-08-03T11:35:09;30.30;99.90
39909;DHT22;25576;48.328;15.694;2022-08-03T11:40:41;30.30;99.90
39909;DHT22;25576;48.328;15.694;2022-08-03T11:46:12;30.50;99.90
39909;DHT22;25576;48.328;15.694;2022-08-03T11:51:51;30.80;99.90
39909;DHT22;25576;48.328;15.694;2022-08-03T11:57:42;31.00;99.90
39909;DHT22;25576;48.328;15.694;2022-08-03T12:03:14;31.20;99.90
39909;DHT22;25576;48.328;15.694;2022-08-03T12:08:46;31.50;99.90
39909;DHT22;25576;48.328;15.694;2022-08-03T12:14:16;31.30;99.90
39909;DHT22;25576;48.328;15.694;2022-08-03T12:19:46;31.20;99.90
39909;DHT22;25576;48.328;15.694;2022-08-03T12:25:22;31.50;99.90
39909;DHT22;25576;48.328;15.694;2022-08-03T12:30:52;31.70;99.90
39909;DHT22;25576;48.328;15.694;2022-08-03T12:36:22;31.70;99.90
39909;DHT22;25576;48.328;15.694;2022-08-03T12:41:54;31.80;99.90
39909;DHT22;25576;48.328;15.694;2022-08-03T12:47:25;31.80;99.90
39909;DHT22;25576;48.328;15.694;2022-08-03T12:52:55;32.00;99.90
39909;DHT22;25576;48.328;15.694;2022-08-03T12:58:31;32.20;99.90
39909;DHT22;25576;48.328;15.694;2022-08-03T13:04:02;31.90;99.90
39909;DHT22;25576;48.328;15.694;2022-08-03T13:09:39;31.90;99.90
39909;DHT22;25576;48.328;15.694;2022-08-03T13:15:11;32.00;99.90
39909;DHT22;25576;48.328;15.694;2022-08-03T13:20:41;31.80;99.90
39909;DHT22;25576;48.328;15.694;2022-08-03T13:26:12;31.70;99.90
39909;DHT22;25576;48.328;15.694;2022-08-03T13:31:44;31.90;99.90
39909;DHT22;25576;48.328;15.694;2022-08-03T13:37:14;31.90;99.90
39909;DHT22;25576;48.328;15.694;2022-08-03T13:42:44;31.80;99.90
39909;DHT22;25576;48.328;15.694;2022-08-03T13:48:19;31.80;99.90
39909;DHT22;25576;48.328;15.694;2022-08-03T13:53:49;32.00;99.90
39909;DHT22;25576;48.328;15.694;2022-08-03T13:59:20;31.90;99.90
39909;DHT22;25576;48.328;15.694;2022-08-03T14:04:52;32.00;99.90
39909;DHT22;25576;48.328;15.694;2022-08-03T14:10:23;31.60;99.90
39909;DHT22;25576;48.328;15.694;2022-08-03T14:15:53;31.50;99.90
39909;DHT22;25576;48.328;15.694;2022-08-03T14:21:26;31.80;99.90
39909;DHT22;25576;48.328;15.694;2022-08-03T14:26:56;31.60;99.90
39909;DHT22;25576;48.328;15.694;2022-08-03T14:32:26;31.40;99.90
39909;DHT22;25576;48.328;15.694;2022-08-03T14:37:58;31.20;99.90
39909;DHT22;25576;48.328;15.694;2022-08-03T14:43:28;31.30;99.90
39909;DHT22;25576;48.328;15.694;2022-08-03T14:48:59;31.10;99.90
39909;DHT22;25576;48.328;15.694;2022-08-03T14:54:30;30.80;99.90
39909;DHT22;25576;48.328;15.694;2022-08-03T15:00:01;30.70;99.90
39909;DHT22;25576;48.328;15.694;2022-08-03T15:05:31;30.80;99.90
39909;DHT22;25576;48.328;15.694;2022-08-03T15:11:03;30.60;99.90
39909;DHT22;25576;48.328;15.694;2022-08-03T15:16:33;30.30;99.90
39909;DHT22;25576;48.328;15.694;2022-08-03T15:22:03;30.40;99.90
39909;DHT22;25576;48.328;15.694;2022-08-03T15:27:35;30.30;99.90
39909;DHT22;25576;48.328;15.694;2022-08-03T15:33:05;30.30;99.90
39909;DHT22;25576;48.328;15.694;2022-08-03T15:38:39;30.10;99.90
39909;DHT22;25576;48.328;15.694;2022-08-03T15:44:10;29.70;99.90
39909;DHT22;25576;48.328;15.694;2022-08-03T15:49:41;29.70;99.90
39909;DHT22;25576;48.328;15.694;2022-08-03T15:55:11;29.60;99.90
39909;DHT22;25576;48.328;15.694;2022-08-03T16:00:42;29.60;99.90
39909;DHT22;25576;48.328;15.694;2022-08-03T16:06:13;29.50;99.90
39909;DHT22;25576;48.328;15.694;2022-08-03T16:11:43;29.30;99.90
39909;DHT22;25576;48.328;15.694;2022-08-03T16:17:15;29.20;99.90
39909;DHT22;25576;48.328;15.694;2022-08-03T16:22:46;29.20;99.90
39909;DHT22;25576;48.328;15.694;2022-08-03T16:28:16;29.10;99.90
39909;DHT22;25576;48.328;15.694;2022-08-03T16:33:47;29.00;99.90
39909;DHT22;25576;48.328;15.694;2022-08-03T16:39:18;29.00;99.90
39909;DHT22;25576;48.328;15.694;2022-08-03T16:44:48;28.80;99.90
39909;DHT22;25576;48.328;15.694;2022-08-03T16:50:20;28.60;99.90
39909;DHT22;25576;48.328;15.694;2022-08-03T16:55:50;28.40;99.90
39909;DHT22;25576;48.328;15.694;2022-08-03T17:01:21;28.10;99.90
39909;DHT22;25576;48.328;15.694;2022-08-03T17:06:52;28.00;99.90
39909;DHT22;25576;48.328;15.694;2022-08-03T17:12:23;27.80;99.90
39909;DHT22;25576;48.328;15.694;2022-08-03T17:18:00;27.60;99.90
39909;DHT22;25576;48.328;15.694;2022-08-03T17:23:37;27.30;99.90
39909;DHT22;25576;48.328;15.694;2022-08-03T17:29:08;27.10;99.90
39909;DHT22;25576;48.328;15.694;2022-08-03T17:34:40;26.90;99.90
39909;DHT22;25576;48.328;15.694;2022-08-03T17:40:13;26.60;99.90
39909;DHT22;25576;48.328;15.694;2022-08-03T17:51:43;26.10;99.90
39909;DHT22;25576;48.328;15.694;2022-08-03T17:57:16;25.80;99.90
39909;DHT22;25576;48.328;15.694;2022-08-03T18:02:52;25.60;99.90
39909;DHT22;25576;48.328;15.694;2022-08-03T18:08:42;25.30;99.90
39909;DHT22;25576;48.328;15.694;2022-08-03T18:14:18;25.20;99.90
39909;DHT22;25576;48.328;15.694;2022-08-03T18:19:50;25.00;99.90
39909;DHT22;25576;48.328;15.694;2022-08-03T18:25:22;24.90;99.90
39909;DHT22;25576;48.328;15.694;2022-08-03T18:30:55;24.80;99.90
39909;DHT22;25576;48.328;15.694;2022-08-03T18:36:25;24.60;99.90
39909;DHT22;25576;48.328;15.694;2022-08-03T18:41:56;24.50;99.90
39909;DHT22;25576;48.328;15.694;2022-08-03T18:53:15;24.20;99.90
39909;DHT22;25576;48.328;15.694;2022-08-03T18:58:46;24.10;99.90
39909;DHT22;25576;48.328;15.694;2022-08-03T19:04:21;23.90;99.90
39909;DHT22;25576;48.328;15.694;2022-08-03T19:09:57;23.80;99.90
39909;DHT22;25576;48.328;15.694;2022-08-03T19:15:28;23.60;99.90
39909;DHT22;25576;48.328;15.694;2022-08-03T19:20:59;23.50;99.90
39909;DHT22;25576;48.328;15.694;2022-08-03T19:26:33;23.20;99.90
39909;DHT22;25576;48.328;15.694;2022-08-03T19:32:04;23.20;99.90
39909;DHT22;25576;48.328;15.694;2022-08-03T19:37:36;23.00;99.90
39909;DHT22;25576;48.328;15.694;2022-08-03T19:43:08;22.80;99.90
39909;DHT22;25576;48.328;15.694;2022-08-03T19:48:41;22.80;99.90
39909;DHT22;25576;48.328;15.694;2022-08-03T19:54:13;22.60;99.90
39909;DHT22;25576;48.328;15.694;2022-08-03T19:59:45;22.50;99.90
39909;DHT22;25576;48.328;15.694;2022-08-03T20:05:17;22.50;99.90
39909;DHT22;25576;48.328;15.694;2022-08-03T20:10:47;22.30;99.90
39909;DHT22;25576;48.328;15.694;2022-08-03T20:16:19;22.20;99.90
39909;DHT22;25576;48.328;15.694;2022-08-03T20:21:50;22.30;99.90
39909;DHT22;25576;48.328;15.694;2022-08-03T20:27:22;22.40;99.90
39909;DHT22;25576;48.328;15.694;2022-08-03T20:32:55;22.40;99.90
39909;DHT22;25576;48.328;15.694;2022-08-03T20:38:25;22.20;99.90
39909;DHT22;25576;48.328;15.694;2022-08-03T20:43:56;21.90;99.90
39909;DHT22;25576;48.328;15.694;2022-08-03T20:49:29;21.70;99.90
39909;DHT22;25576;48.328;15.694;2022-08-03T20:55:00;21.60;99.90
39909;DHT22;25576;48.328;15.694;2022-08-03T21:00:31;21.50;99.90
39909;DHT22;25576;48.328;15.694;2022-08-03T21:06:03;21.30;99.90
39909;DHT22;25576;48.328;15.694;2022-08-03T21:11:37;21.20;99.90
39909;DHT22;25576;48.328;15.694;2022-08-03T21:35:42;20.60;99.90
39909;DHT22;25576;48.328;15.694;2022-08-03T21:47:28;20.60;99.90
39909;DHT22;25576;48.328;15.694;2022-08-03T21:53:02;20.50;99.90
39909;DHT22;25576;48.328;15.694;2022-08-03T21:58:37;20.50;99.90
39909;DHT22;25576;48.328;15.694;2022-08-03T22:04:11;20.40;99.90
39909;DHT22;25576;48.328;15.694;2022-08-03T22:09:47;20.40;99.90
39909;DHT22;25576;48.328;15.694;2022-08-03T22:15:21;20.30;99.90
39909;DHT22;25576;48.328;15.694;2022-08-03T22:21:09;20.20;99.90
39909;DHT22;25576;48.328;15.694;2022-08-03T22:26:42;20.10;99.90
39909;DHT22;25576;48.328;15.694;2022-08-03T22:32:33;19.90;99.90
39909;DHT22;25576;48.328;15.694;2022-08-03T22:38:26;19.80;99.90
39909;DHT22;25576;48.328;15.694;2022-08-03T22:43:59;19.90;99.90
39909;DHT22;25576;48.328;15.694;2022-08-03T22:49:31;19.80;99.90
39909;DHT22;25576;48.328;15.694;2022-08-03T22:55:03;19.80;99.90
39909;DHT22;25576;48.328;15.694;2022-08-03T23:00:42;19.60;99.90
39909;DHT22;25576;48.328;15.694;2022-08-03T23:06:14;19.60;99.90
39909;DHT22;25576;48.328;15.694;2022-08-03T23:11:49;19.40;99.90
39909;DHT22;25576;48.328;15.694;2022-08-03T23:17:30;19.30;99.90
39909;DHT22;25576;48.328;15.694;2022-08-03T23:29:07;19.20;99.90
39909;DHT22;25576;48.328;15.694;2022-08-03T23:44:16;19.00;99.90
39909;DHT22;25576;48.328;15.694;2022-08-03T23:49:48;19.00;99.90
39909;DHT22;25576;48.328;15.694;2022-08-03T23:55:28;18.90;99.90
